sensor_id;sensor_type;location;lat;lon;timestamp;P1;durP1;ratioP1;P2;durP2;ratioP2
7477;SDS011;3780;42.424;25.636;2023-01-16T00:00:25;43.35;;;31.13;;
7477;SDS011;3780;42.424;25.636;2023-01-16T00:02:50;46.63;;;33.28;;
7477;SDS011;3780;42.424;25.636;2023-01-16T00:05:15;51.25;;;35.75;;
7477;SDS011;3780;42.424;25.636;2023-01-16T00:07:41;45.40;;;32.65;;
7477;SDS011;3780;42.424;25.636;2023-01-16T00:10:06;45.88;;;32.42;;
7477;SDS011;3780;42.424;25.636;2023-01-16T00:12:31;43.80;;;30.08;;
7477;SDS011;3780;42.424;25.636;2023-01-16T00:14:57;36.80;;;26.15;;
7477;SDS011;3780;42.424;25.636;2023-01-16T00:17:22;33.65;;;25.08;;
7477;SDS011;3780;42.424;25.636;2023-01-16T00:19:47;33.03;;;24.45;;
7477;SDS011;3780;42.424;25.636;2023-01-16T00:22:13;29.15;;;22.17;;
7477;SDS011;3780;42.424;25.636;2023-01-16T00:24:38;30.25;;;21.60;;
7477;SDS011;3780;42.424;25.636;2023-01-16T00:27:03;25.63;;;19.73;;
7477;SDS011;3780;42.424;25.636;2023-01-16T00:29:29;27.40;;;19.88;;
7477;SDS011;3780;42.424;25.636;2023-01-16T00:31:54;24.90;;;19.65;;
7477;SDS011;3780;42.424;25.636;2023-01-16T00:34:19;29.17;;;19.98;;
7477;SDS011;3780;42.424;25.636;2023-01-16T00:36:45;23.77;;;17.80;;
7477;SDS011;3780;42.424;25.636;2023-01-16T00:39:10;24.35;;;17.48;;
7477;SDS011;3780;42.424;25.636;2023-01-16T00:41:35;22.77;;;16.95;;
7477;SDS011;3780;42.424;25.636;2023-01-16T00:44:01;21.30;;;16.25;;
7477;SDS011;3780;42.424;25.636;2023-01-16T00:46:26;21.75;;;16.80;;
7477;SDS011;3780;42.424;25.636;2023-01-16T00:48:54;22.42;;;16.60;;
7477;SDS011;3780;42.424;25.636;2023-01-16T00:51:19;20.02;;;14.93;;
7477;SDS011;3780;42.424;25.636;2023-01-16T00:53:44;20.45;;;14.75;;
7477;SDS011;3780;42.424;25.636;2023-01-16T00:56:10;21.20;;;15.80;;
7477;SDS011;3780;42.424;25.636;2023-01-16T00:58:35;20.95;;;15.95;;
7477;SDS011;3780;42.424;25.636;2023-01-16T01:01:00;19.85;;;14.38;;
7477;SDS011;3780;42.424;25.636;2023-01-16T01:03:27;17.77;;;13.88;;
7477;SDS011;3780;42.424;25.636;2023-01-16T01:05:52;18.80;;;13.95;;
7477;SDS011;3780;42.424;25.636;2023-01-16T01:08:17;16.95;;;13.63;;
7477;SDS011;3780;42.424;25.636;2023-01-16T01:10:43;17.65;;;13.85;;
7477;SDS011;3780;42.424;25.636;2023-01-16T01:13:08;19.70;;;13.70;;
7477;SDS011;3780;42.424;25.636;2023-01-16T01:15:33;18.80;;;14.10;;
7477;SDS011;3780;42.424;25.636;2023-01-16T01:17:59;18.00;;;13.25;;
7477;SDS011;3780;42.424;25.636;2023-01-16T01:20:24;16.80;;;12.70;;
7477;SDS011;3780;42.424;25.636;2023-01-16T01:22:50;17.23;;;13.50;;
7477;SDS011;3780;42.424;25.636;2023-01-16T01:25:15;19.75;;;14.38;;
7477;SDS011;3780;42.424;25.636;2023-01-16T01:27:40;27.67;;;18.67;;
7477;SDS011;3780;42.424;25.636;2023-01-16T01:30:06;25.05;;;16.80;;
7477;SDS011;3780;42.424;25.636;2023-01-16T01:32:31;22.85;;;16.10;;
7477;SDS011;3780;42.424;25.636;2023-01-16T01:34:56;23.58;;;16.70;;
7477;SDS011;3780;42.424;25.636;2023-01-16T01:37:23;25.13;;;16.70;;
7477;SDS011;3780;42.424;25.636;2023-01-16T01:39:49;23.95;;;16.77;;
7477;SDS011;3780;42.424;25.636;2023-01-16T01:42:15;22.55;;;16.80;;
7477;SDS011;3780;42.424;25.636;2023-01-16T01:47:29;28.63;;;21.55;;
7477;SDS011;3780;42.424;25.636;2023-01-16T01:49:56;28.75;;;21.10;;
7477;SDS011;3780;42.424;25.636;2023-01-16T01:52:23;30.73;;;21.13;;
7477;SDS011;3780;42.424;25.636;2023-01-16T01:54:54;25.88;;;18.85;;
7477;SDS011;3780;42.424;25.636;2023-01-16T01:57:22;23.05;;;17.15;;
7477;SDS011;3780;42.424;25.636;2023-01-16T01:59:58;22.35;;;16.95;;
7477;SDS011;3780;42.424;25.636;2023-01-16T02:02:25;24.02;;;17.27;;
7477;SDS011;3780;42.424;25.636;2023-01-16T02:04:51;23.30;;;17.38;;
7477;SDS011;3780;42.424;25.636;2023-01-16T02:07:21;27.15;;;18.40;;
7477;SDS011;3780;42.424;25.636;2023-01-16T02:09:47;28.23;;;18.13;;
7477;SDS011;3780;42.424;25.636;2023-01-16T02:12:13;24.98;;;17.52;;
7477;SDS011;3780;42.424;25.636;2023-01-16T02:14:40;26.02;;;17.60;;
7477;SDS011;3780;42.424;25.636;2023-01-16T02:17:10;21.60;;;16.80;;
7477;SDS011;3780;42.424;25.636;2023-01-16T02:35:38;21.45;;;16.50;;
7477;SDS011;3780;42.424;25.636;2023-01-16T02:38:03;24.08;;;15.93;;
7477;SDS011;3780;42.424;25.636;2023-01-16T02:53:25;20.83;;;15.15;;
7477;SDS011;3780;42.424;25.636;2023-01-16T02:55:59;20.20;;;15.93;;
7477;SDS011;3780;42.424;25.636;2023-01-16T02:58:28;22.52;;;16.52;;
7477;SDS011;3780;42.424;25.636;2023-01-16T03:00:54;18.80;;;15.93;;
7477;SDS011;3780;42.424;25.636;2023-01-16T03:06:50;20.70;;;16.20;;
7477;SDS011;3780;42.424;25.636;2023-01-16T03:11:19;23.33;;;16.35;;
7477;SDS011;3780;42.424;25.636;2023-01-16T03:19:20;19.60;;;15.57;;
7477;SDS011;3780;42.424;25.636;2023-01-16T03:27:03;19.95;;;15.02;;
7477;SDS011;3780;42.424;25.636;2023-01-16T03:29:45;18.48;;;14.98;;
7477;SDS011;3780;42.424;25.636;2023-01-16T03:32:27;23.50;;;15.52;;
7477;SDS011;3780;42.424;25.636;2023-01-16T03:34:57;25.48;;;14.93;;
7477;SDS011;3780;42.424;25.636;2023-01-16T03:37:30;20.23;;;14.52;;
7477;SDS011;3780;42.424;25.636;2023-01-16T03:39:58;22.02;;;15.02;;
7477;SDS011;3780;42.424;25.636;2023-01-16T03:42:28;20.65;;;14.60;;
7477;SDS011;3780;42.424;25.636;2023-01-16T03:44:55;21.25;;;14.98;;
7477;SDS011;3780;42.424;25.636;2023-01-16T03:47:24;21.80;;;14.80;;
7477;SDS011;3780;42.424;25.636;2023-01-16T03:49:52;19.35;;;14.05;;
7477;SDS011;3780;42.424;25.636;2023-01-16T03:52:19;18.30;;;14.70;;
7477;SDS011;3780;42.424;25.636;2023-01-16T03:57:30;19.67;;;14.93;;
7477;SDS011;3780;42.424;25.636;2023-01-16T03:59:56;20.42;;;14.98;;
7477;SDS011;3780;42.424;25.636;2023-01-16T04:04:54;21.13;;;15.77;;
7477;SDS011;3780;42.424;25.636;2023-01-16T04:09:55;22.38;;;14.85;;
7477;SDS011;3780;42.424;25.636;2023-01-16T04:12:22;20.92;;;14.60;;
7477;SDS011;3780;42.424;25.636;2023-01-16T04:14:50;19.48;;;15.88;;
7477;SDS011;3780;42.424;25.636;2023-01-16T04:17:18;18.95;;;15.30;;
7477;SDS011;3780;42.424;25.636;2023-01-16T04:19:43;22.25;;;16.38;;
7477;SDS011;3780;42.424;25.636;2023-01-16T04:22:09;26.23;;;16.35;;
7477;SDS011;3780;42.424;25.636;2023-01-16T04:24:44;22.08;;;17.35;;
7477;SDS011;3780;42.424;25.636;2023-01-16T04:27:09;27.67;;;16.58;;
7477;SDS011;3780;42.424;25.636;2023-01-16T04:29:35;21.77;;;15.52;;
7477;SDS011;3780;42.424;25.636;2023-01-16T04:32:00;23.25;;;16.10;;
7477;SDS011;3780;42.424;25.636;2023-01-16T04:34:25;23.48;;;17.42;;
7477;SDS011;3780;42.424;25.636;2023-01-16T04:36:51;27.73;;;19.00;;
7477;SDS011;3780;42.424;25.636;2023-01-16T04:39:16;23.45;;;18.17;;
7477;SDS011;3780;42.424;25.636;2023-01-16T04:41:41;24.80;;;17.58;;
7477;SDS011;3780;42.424;25.636;2023-01-16T04:44:07;28.23;;;19.30;;
7477;SDS011;3780;42.424;25.636;2023-01-16T04:46:33;24.85;;;17.10;;
7477;SDS011;3780;42.424;25.636;2023-01-16T04:48:59;33.25;;;18.33;;
7477;SDS011;3780;42.424;25.636;2023-01-16T04:51:24;25.33;;;18.23;;
7477;SDS011;3780;42.424;25.636;2023-01-16T04:53:50;21.95;;;16.05;;
7477;SDS011;3780;42.424;25.636;2023-01-16T04:56:15;23.20;;;17.67;;
7477;SDS011;3780;42.424;25.636;2023-01-16T04:58:40;26.65;;;17.75;;
7477;SDS011;3780;42.424;25.636;2023-01-16T05:01:06;23.00;;;18.15;;
7477;SDS011;3780;42.424;25.636;2023-01-16T05:03:31;28.70;;;18.27;;
7477;SDS011;3780;42.424;25.636;2023-01-16T05:05:56;28.95;;;19.05;;
7477;SDS011;3780;42.424;25.636;2023-01-16T05:08:22;28.42;;;19.10;;
7477;SDS011;3780;42.424;25.636;2023-01-16T05:10:50;25.95;;;17.85;;
7477;SDS011;3780;42.424;25.636;2023-01-16T05:13:16;23.77;;;18.20;;
7477;SDS011;3780;42.424;25.636;2023-01-16T05:15:42;27.48;;;18.85;;
7477;SDS011;3780;42.424;25.636;2023-01-16T05:18:07;26.42;;;19.85;;
7477;SDS011;3780;42.424;25.636;2023-01-16T05:20:32;22.75;;;17.08;;
7477;SDS011;3780;42.424;25.636;2023-01-16T05:22:58;27.65;;;18.92;;
7477;SDS011;3780;42.424;25.636;2023-01-16T05:25:23;30.75;;;19.20;;
7477;SDS011;3780;42.424;25.636;2023-01-16T05:27:49;37.00;;;20.45;;
7477;SDS011;3780;42.424;25.636;2023-01-16T05:30:14;34.50;;;20.50;;
7477;SDS011;3780;42.424;25.636;2023-01-16T05:32:40;31.02;;;20.60;;
7477;SDS011;3780;42.424;25.636;2023-01-16T05:35:05;31.83;;;20.48;;
7477;SDS011;3780;42.424;25.636;2023-01-16T05:37:30;29.25;;;19.77;;
7477;SDS011;3780;42.424;25.636;2023-01-16T05:39:56;35.08;;;21.42;;
7477;SDS011;3780;42.424;25.636;2023-01-16T05:42:22;34.97;;;23.13;;
7477;SDS011;3780;42.424;25.636;2023-01-16T05:44:50;33.08;;;25.50;;
7477;SDS011;3780;42.424;25.636;2023-01-16T05:47:15;54.80;;;36.25;;
7477;SDS011;3780;42.424;25.636;2023-01-16T05:49:41;48.03;;;31.92;;
7477;SDS011;3780;42.424;25.636;2023-01-16T05:52:06;50.78;;;32.88;;
7477;SDS011;3780;42.424;25.636;2023-01-16T05:54:31;41.92;;;33.20;;
7477;SDS011;3780;42.424;25.636;2023-01-16T05:56:57;58.63;;;35.40;;
7477;SDS011;3780;42.424;25.636;2023-01-16T05:59:22;71.57;;;45.25;;
7477;SDS011;3780;42.424;25.636;2023-01-16T06:01:47;60.10;;;42.20;;
7477;SDS011;3780;42.424;25.636;2023-01-16T06:04:13;67.90;;;46.03;;
7477;SDS011;3780;42.424;25.636;2023-01-16T06:06:38;50.72;;;34.65;;
7477;SDS011;3780;42.424;25.636;2023-01-16T06:09:03;50.55;;;33.92;;
7477;SDS011;3780;42.424;25.636;2023-01-16T06:11:28;55.15;;;34.38;;
7477;SDS011;3780;42.424;25.636;2023-01-16T06:13:54;62.22;;;35.88;;
7477;SDS011;3780;42.424;25.636;2023-01-16T06:16:21;57.15;;;35.83;;
7477;SDS011;3780;42.424;25.636;2023-01-16T06:18:47;70.47;;;34.85;;
7477;SDS011;3780;42.424;25.636;2023-01-16T06:21:13;71.88;;;34.83;;
7477;SDS011;3780;42.424;25.636;2023-01-16T06:23:38;65.30;;;36.78;;
7477;SDS011;3780;42.424;25.636;2023-01-16T06:26:03;66.68;;;35.80;;
7477;SDS011;3780;42.424;25.636;2023-01-16T06:28:30;86.05;;;40.78;;
7477;SDS011;3780;42.424;25.636;2023-01-16T06:30:56;84.65;;;40.83;;
7477;SDS011;3780;42.424;25.636;2023-01-16T06:33:21;78.18;;;41.30;;
7477;SDS011;3780;42.424;25.636;2023-01-16T06:35:46;80.00;;;41.13;;
7477;SDS011;3780;42.424;25.636;2023-01-16T06:38:13;78.00;;;41.22;;
7477;SDS011;3780;42.424;25.636;2023-01-16T06:40:39;82.75;;;41.67;;
7477;SDS011;3780;42.424;25.636;2023-01-16T06:43:04;80.82;;;42.92;;
7477;SDS011;3780;42.424;25.636;2023-01-16T06:45:29;87.57;;;44.35;;
7477;SDS011;3780;42.424;25.636;2023-01-16T06:47:55;83.30;;;44.80;;
7477;SDS011;3780;42.424;25.636;2023-01-16T06:50:20;92.20;;;45.65;;
7477;SDS011;3780;42.424;25.636;2023-01-16T06:52:46;98.55;;;52.78;;
7477;SDS011;3780;42.424;25.636;2023-01-16T06:55:12;100.13;;;52.58;;
7477;SDS011;3780;42.424;25.636;2023-01-16T06:57:38;81.03;;;46.88;;
7477;SDS011;3780;42.424;25.636;2023-01-16T07:00:04;95.38;;;52.47;;
7477;SDS011;3780;42.424;25.636;2023-01-16T07:02:29;132.75;;;82.18;;
7477;SDS011;3780;42.424;25.636;2023-01-16T07:04:55;129.43;;;83.47;;
7477;SDS011;3780;42.424;25.636;2023-01-16T07:07:20;80.75;;;44.40;;
7477;SDS011;3780;42.424;25.636;2023-01-16T07:09:45;78.38;;;39.22;;
7477;SDS011;3780;42.424;25.636;2023-01-16T07:12:11;71.50;;;36.03;;
7477;SDS011;3780;42.424;25.636;2023-01-16T07:14:36;70.53;;;38.97;;
7477;SDS011;3780;42.424;25.636;2023-01-16T07:17:20;62.22;;;41.35;;
7477;SDS011;3780;42.424;25.636;2023-01-16T07:20:04;61.22;;;35.10;;
7477;SDS011;3780;42.424;25.636;2023-01-16T07:22:48;59.35;;;35.75;;
7477;SDS011;3780;42.424;25.636;2023-01-16T07:25:20;57.08;;;34.60;;
7477;SDS011;3780;42.424;25.636;2023-01-16T07:27:48;79.15;;;45.63;;
7477;SDS011;3780;42.424;25.636;2023-01-16T07:30:14;62.83;;;35.58;;
7477;SDS011;3780;42.424;25.636;2023-01-16T07:32:40;59.33;;;35.10;;
7477;SDS011;3780;42.424;25.636;2023-01-16T07:35:05;63.83;;;36.60;;
7477;SDS011;3780;42.424;25.636;2023-01-16T07:37:32;66.78;;;35.25;;
7477;SDS011;3780;42.424;25.636;2023-01-16T07:39:57;69.78;;;38.10;;
7477;SDS011;3780;42.424;25.636;2023-01-16T07:42:22;72.55;;;39.95;;
7477;SDS011;3780;42.424;25.636;2023-01-16T07:44:48;68.35;;;38.92;;
7477;SDS011;3780;42.424;25.636;2023-01-16T07:47:13;67.00;;;39.30;;
7477;SDS011;3780;42.424;25.636;2023-01-16T07:49:39;64.93;;;37.42;;
7477;SDS011;3780;42.424;25.636;2023-01-16T07:52:04;55.85;;;32.50;;
7477;SDS011;3780;42.424;25.636;2023-01-16T07:54:29;35.72;;;23.52;;
7477;SDS011;3780;42.424;25.636;2023-01-16T07:56:55;41.00;;;23.52;;
7477;SDS011;3780;42.424;25.636;2023-01-16T07:59:20;41.03;;;25.58;;
7477;SDS011;3780;42.424;25.636;2023-01-16T08:01:45;52.20;;;27.48;;
7477;SDS011;3780;42.424;25.636;2023-01-16T08:04:12;50.70;;;29.58;;
7477;SDS011;3780;42.424;25.636;2023-01-16T08:06:37;42.53;;;25.85;;
7477;SDS011;3780;42.424;25.636;2023-01-16T08:09:07;36.63;;;21.67;;
7477;SDS011;3780;42.424;25.636;2023-01-16T08:11:33;31.90;;;19.45;;
7477;SDS011;3780;42.424;25.636;2023-01-16T08:14:02;47.20;;;23.52;;
7477;SDS011;3780;42.424;25.636;2023-01-16T08:16:27;64.28;;;31.23;;
7477;SDS011;3780;42.424;25.636;2023-01-16T08:18:52;36.40;;;21.27;;
7477;SDS011;3780;42.424;25.636;2023-01-16T08:21:18;31.58;;;17.60;;
7477;SDS011;3780;42.424;25.636;2023-01-16T08:23:43;29.17;;;15.98;;
7477;SDS011;3780;42.424;25.636;2023-01-16T08:26:09;24.17;;;14.13;;
7477;SDS011;3780;42.424;25.636;2023-01-16T08:28:34;33.67;;;16.13;;
7477;SDS011;3780;42.424;25.636;2023-01-16T08:31:07;31.15;;;15.63;;
7477;SDS011;3780;42.424;25.636;2023-01-16T08:33:37;31.00;;;19.35;;
7477;SDS011;3780;42.424;25.636;2023-01-16T08:36:03;37.63;;;22.65;;
7477;SDS011;3780;42.424;25.636;2023-01-16T08:38:29;44.38;;;21.15;;
7477;SDS011;3780;42.424;25.636;2023-01-16T08:40:54;42.17;;;22.13;;
7477;SDS011;3780;42.424;25.636;2023-01-16T08:43:19;41.63;;;23.75;;
7477;SDS011;3780;42.424;25.636;2023-01-16T08:46:03;23.70;;;15.68;;
7477;SDS011;3780;42.424;25.636;2023-01-16T08:48:52;32.38;;;22.10;;
7477;SDS011;3780;42.424;25.636;2023-01-16T08:51:36;24.40;;;18.10;;
7477;SDS011;3780;42.424;25.636;2023-01-16T08:54:01;38.05;;;19.83;;
7477;SDS011;3780;42.424;25.636;2023-01-16T08:56:27;25.30;;;18.42;;
7477;SDS011;3780;42.424;25.636;2023-01-16T08:58:52;32.25;;;22.02;;
7477;SDS011;3780;42.424;25.636;2023-01-16T09:01:17;29.08;;;19.27;;
7477;SDS011;3780;42.424;25.636;2023-01-16T09:03:44;27.45;;;18.27;;
7477;SDS011;3780;42.424;25.636;2023-01-16T09:06:09;36.28;;;21.20;;
7477;SDS011;3780;42.424;25.636;2023-01-16T09:08:34;35.95;;;22.52;;
7477;SDS011;3780;42.424;25.636;2023-01-16T09:11:00;24.58;;;18.88;;
7477;SDS011;3780;42.424;25.636;2023-01-16T09:13:44;36.72;;;23.20;;
7477;SDS011;3780;42.424;25.636;2023-01-16T09:16:22;33.85;;;23.00;;
7477;SDS011;3780;42.424;25.636;2023-01-16T09:18:48;35.50;;;22.83;;
7477;SDS011;3780;42.424;25.636;2023-01-16T09:21:13;35.25;;;22.17;;
7477;SDS011;3780;42.424;25.636;2023-01-16T09:23:39;33.35;;;22.48;;
7477;SDS011;3780;42.424;25.636;2023-01-16T09:26:04;30.05;;;20.92;;
7477;SDS011;3780;42.424;25.636;2023-01-16T09:28:30;57.33;;;25.45;;
7477;SDS011;3780;42.424;25.636;2023-01-16T09:30:55;30.63;;;19.85;;
7477;SDS011;3780;42.424;25.636;2023-01-16T09:33:20;39.97;;;19.52;;
7477;SDS011;3780;42.424;25.636;2023-01-16T09:35:46;30.15;;;19.05;;
7477;SDS011;3780;42.424;25.636;2023-01-16T09:38:11;20.08;;;14.73;;
7477;SDS011;3780;42.424;25.636;2023-01-16T09:40:36;31.85;;;16.88;;
7477;SDS011;3780;42.424;25.636;2023-01-16T09:45:45;24.13;;;15.88;;
7477;SDS011;3780;42.424;25.636;2023-01-16T09:48:26;26.13;;;16.00;;
7477;SDS011;3780;42.424;25.636;2023-01-16T09:50:54;34.92;;;19.38;;
7477;SDS011;3780;42.424;25.636;2023-01-16T09:56:11;48.25;;;25.42;;
7477;SDS011;3780;42.424;25.636;2023-01-16T09:58:57;51.05;;;23.45;;
7477;SDS011;3780;42.424;25.636;2023-01-16T10:01:27;46.63;;;22.85;;
7477;SDS011;3780;42.424;25.636;2023-01-16T10:03:56;42.58;;;23.58;;
7477;SDS011;3780;42.424;25.636;2023-01-16T10:06:33;31.30;;;20.48;;
7477;SDS011;3780;42.424;25.636;2023-01-16T10:14:02;31.38;;;21.08;;
7477;SDS011;3780;42.424;25.636;2023-01-16T10:19:14;31.90;;;19.92;;
7477;SDS011;3780;42.424;25.636;2023-01-16T10:27:03;37.85;;;21.50;;
7477;SDS011;3780;42.424;25.636;2023-01-16T10:29:32;31.60;;;21.92;;
7477;SDS011;3780;42.424;25.636;2023-01-16T10:37:18;46.55;;;29.13;;
7477;SDS011;3780;42.424;25.636;2023-01-16T10:39:44;42.30;;;26.83;;
7477;SDS011;3780;42.424;25.636;2023-01-16T10:42:11;40.50;;;26.52;;
7477;SDS011;3780;42.424;25.636;2023-01-16T10:50:32;35.00;;;22.20;;
7477;SDS011;3780;42.424;25.636;2023-01-16T10:52:58;34.13;;;22.55;;
7477;SDS011;3780;42.424;25.636;2023-01-16T10:55:23;32.58;;;21.67;;
7477;SDS011;3780;42.424;25.636;2023-01-16T10:57:52;36.72;;;22.52;;
7477;SDS011;3780;42.424;25.636;2023-01-16T11:00:30;33.50;;;20.10;;
7477;SDS011;3780;42.424;25.636;2023-01-16T11:02:57;35.22;;;20.48;;
7477;SDS011;3780;42.424;25.636;2023-01-16T11:05:24;32.58;;;20.23;;
7477;SDS011;3780;42.424;25.636;2023-01-16T11:07:52;29.05;;;19.48;;
7477;SDS011;3780;42.424;25.636;2023-01-16T11:10:17;32.35;;;21.45;;
7477;SDS011;3780;42.424;25.636;2023-01-16T11:12:43;41.67;;;25.50;;
7477;SDS011;3780;42.424;25.636;2023-01-16T11:15:26;30.35;;;20.98;;
7477;SDS011;3780;42.424;25.636;2023-01-16T11:18:27;34.10;;;21.67;;
7477;SDS011;3780;42.424;25.636;2023-01-16T11:21:15;31.40;;;21.27;;
7477;SDS011;3780;42.424;25.636;2023-01-16T11:23:42;32.08;;;20.77;;
7477;SDS011;3780;42.424;25.636;2023-01-16T11:26:08;40.10;;;23.23;;
7477;SDS011;3780;42.424;25.636;2023-01-16T11:28:34;32.63;;;21.10;;
7477;SDS011;3780;42.424;25.636;2023-01-16T11:31:01;35.95;;;20.48;;
7477;SDS011;3780;42.424;25.636;2023-01-16T11:33:32;28.98;;;21.55;;
7477;SDS011;3780;42.424;25.636;2023-01-16T11:35:58;36.75;;;23.50;;
7477;SDS011;3780;42.424;25.636;2023-01-16T11:38:26;32.97;;;21.63;;
7477;SDS011;3780;42.424;25.636;2023-01-16T11:40:52;31.77;;;22.02;;
7477;SDS011;3780;42.424;25.636;2023-01-16T11:43:23;39.60;;;23.83;;
7477;SDS011;3780;42.424;25.636;2023-01-16T11:46:24;26.92;;;19.15;;
7477;SDS011;3780;42.424;25.636;2023-01-16T11:48:55;28.15;;;19.88;;
7477;SDS011;3780;42.424;25.636;2023-01-16T11:51:23;28.08;;;20.23;;
7477;SDS011;3780;42.424;25.636;2023-01-16T11:53:49;40.70;;;21.77;;
7477;SDS011;3780;42.424;25.636;2023-01-16T12:01:46;36.78;;;19.40;;
7477;SDS011;3780;42.424;25.636;2023-01-16T12:04:34;22.38;;;16.05;;
7477;SDS011;3780;42.424;25.636;2023-01-16T12:07:06;33.15;;;20.95;;
7477;SDS011;3780;42.424;25.636;2023-01-16T12:12:35;27.92;;;18.95;;
7477;SDS011;3780;42.424;25.636;2023-01-16T12:15:25;26.45;;;16.92;;
7477;SDS011;3780;42.424;25.636;2023-01-16T12:18:11;35.80;;;18.27;;
7477;SDS011;3780;42.424;25.636;2023-01-16T12:20:49;29.60;;;17.57;;
7477;SDS011;3780;42.424;25.636;2023-01-16T12:26:01;22.58;;;16.45;;
7477;SDS011;3780;42.424;25.636;2023-01-16T12:31:11;34.88;;;16.55;;
7477;SDS011;3780;42.424;25.636;2023-01-16T12:41:54;42.70;;;24.90;;
7477;SDS011;3780;42.424;25.636;2023-01-16T12:45:03;35.17;;;20.75;;
7477;SDS011;3780;42.424;25.636;2023-01-16T12:54:58;35.15;;;19.25;;
7477;SDS011;3780;42.424;25.636;2023-01-16T13:00:08;46.90;;;18.83;;
7477;SDS011;3780;42.424;25.636;2023-01-16T13:05:05;36.08;;;18.75;;
7477;SDS011;3780;42.424;25.636;2023-01-16T13:07:33;39.60;;;17.70;;
7477;SDS011;3780;42.424;25.636;2023-01-16T13:10:01;44.17;;;19.13;;
7477;SDS011;3780;42.424;25.636;2023-01-16T13:12:48;36.70;;;18.92;;
7477;SDS011;3780;42.424;25.636;2023-01-16T13:15:34;32.47;;;18.10;;
7477;SDS011;3780;42.424;25.636;2023-01-16T13:20:29;31.25;;;17.40;;
7477;SDS011;3780;42.424;25.636;2023-01-16T13:22:56;31.15;;;18.50;;
7477;SDS011;3780;42.424;25.636;2023-01-16T13:27:55;52.70;;;19.83;;
7477;SDS011;3780;42.424;25.636;2023-01-16T13:30:22;38.55;;;17.88;;
7477;SDS011;3780;42.424;25.636;2023-01-16T13:32:52;34.38;;;18.88;;
7477;SDS011;3780;42.424;25.636;2023-01-16T13:35:20;35.47;;;20.00;;
7477;SDS011;3780;42.424;25.636;2023-01-16T13:38:05;39.33;;;19.25;;
7477;SDS011;3780;42.424;25.636;2023-01-16T13:43:09;59.08;;;22.67;;
7477;SDS011;3780;42.424;25.636;2023-01-16T13:45:54;51.83;;;21.17;;
7477;SDS011;3780;42.424;25.636;2023-01-16T13:48:21;40.03;;;19.20;;
7477;SDS011;3780;42.424;25.636;2023-01-16T13:50:48;56.50;;;21.35;;
7477;SDS011;3780;42.424;25.636;2023-01-16T13:53:16;35.17;;;20.77;;
7477;SDS011;3780;42.424;25.636;2023-01-16T13:55:42;42.20;;;19.90;;
7477;SDS011;3780;42.424;25.636;2023-01-16T13:58:21;46.53;;;19.02;;
7477;SDS011;3780;42.424;25.636;2023-01-16T14:00:55;37.55;;;18.38;;
7477;SDS011;3780;42.424;25.636;2023-01-16T14:03:22;30.23;;;18.13;;
7477;SDS011;3780;42.424;25.636;2023-01-16T14:13:39;34.90;;;21.27;;
7477;SDS011;3780;42.424;25.636;2023-01-16T14:21:40;36.92;;;21.30;;
7477;SDS011;3780;42.424;25.636;2023-01-16T14:24:15;38.47;;;20.75;;
7477;SDS011;3780;42.424;25.636;2023-01-16T14:26:51;51.22;;;20.42;;
7477;SDS011;3780;42.424;25.636;2023-01-16T14:31:50;58.20;;;21.27;;
7477;SDS011;3780;42.424;25.636;2023-01-16T14:34:17;50.42;;;19.63;;
7477;SDS011;3780;42.424;25.636;2023-01-16T14:36:44;47.13;;;18.77;;
7477;SDS011;3780;42.424;25.636;2023-01-16T14:39:31;41.55;;;19.08;;
7477;SDS011;3780;42.424;25.636;2023-01-16T14:42:06;50.70;;;19.88;;
7477;SDS011;3780;42.424;25.636;2023-01-16T14:44:58;53.70;;;20.15;;
7477;SDS011;3780;42.424;25.636;2023-01-16T14:48:09;38.20;;;20.35;;
7477;SDS011;3780;42.424;25.636;2023-01-16T14:53:44;44.17;;;27.23;;
7477;SDS011;3780;42.424;25.636;2023-01-16T14:56:31;31.75;;;20.15;;
7477;SDS011;3780;42.424;25.636;2023-01-16T15:04:11;63.33;;;26.35;;
7477;SDS011;3780;42.424;25.636;2023-01-16T15:06:39;57.95;;;22.33;;
7477;SDS011;3780;42.424;25.636;2023-01-16T15:09:06;70.13;;;24.92;;
7477;SDS011;3780;42.424;25.636;2023-01-16T15:12:37;34.83;;;21.08;;
7477;SDS011;3780;42.424;25.636;2023-01-16T15:14:31;29.98;;;20.92;;
7477;SDS011;3780;42.424;25.636;2023-01-16T15:20:00;35.90;;;22.90;;
7477;SDS011;3780;42.424;25.636;2023-01-16T15:22:48;30.65;;;19.70;;
7477;SDS011;3780;42.424;25.636;2023-01-16T15:25:39;36.38;;;20.35;;
7477;SDS011;3780;42.424;25.636;2023-01-16T15:30:34;28.33;;;21.17;;
7477;SDS011;3780;42.424;25.636;2023-01-16T15:33:00;31.10;;;22.42;;
7477;SDS011;3780;42.424;25.636;2023-01-16T15:35:44;43.97;;;23.40;;
7477;SDS011;3780;42.424;25.636;2023-01-16T15:38:18;32.08;;;21.55;;
7477;SDS011;3780;42.424;25.636;2023-01-16T15:40:50;31.48;;;21.88;;
7477;SDS011;3780;42.424;25.636;2023-01-16T15:43:16;38.17;;;21.30;;
7477;SDS011;3780;42.424;25.636;2023-01-16T15:46:06;30.73;;;20.75;;
7477;SDS011;3780;42.424;25.636;2023-01-16T15:48:58;32.20;;;20.60;;
7477;SDS011;3780;42.424;25.636;2023-01-16T15:51:25;41.80;;;21.45;;
7477;SDS011;3780;42.424;25.636;2023-01-16T15:53:50;39.75;;;22.17;;
7477;SDS011;3780;42.424;25.636;2023-01-16T15:58:47;39.80;;;26.83;;
7477;SDS011;3780;42.424;25.636;2023-01-16T16:01:13;33.50;;;23.45;;
7477;SDS011;3780;42.424;25.636;2023-01-16T16:03:42;66.82;;;25.30;;
7477;SDS011;3780;42.424;25.636;2023-01-16T16:06:12;44.25;;;26.17;;
7477;SDS011;3780;42.424;25.636;2023-01-16T16:08:39;36.40;;;24.45;;
7477;SDS011;3780;42.424;25.636;2023-01-16T16:11:06;46.40;;;25.38;;
7477;SDS011;3780;42.424;25.636;2023-01-16T16:13:50;34.67;;;24.92;;
7477;SDS011;3780;42.424;25.636;2023-01-16T16:16:20;40.58;;;24.85;;
7477;SDS011;3780;42.424;25.636;2023-01-16T16:19:04;38.00;;;24.25;;
7477;SDS011;3780;42.424;25.636;2023-01-16T16:21:37;33.85;;;25.15;;
7477;SDS011;3780;42.424;25.636;2023-01-16T16:24:26;33.58;;;24.17;;
7477;SDS011;3780;42.424;25.636;2023-01-16T16:26:52;38.25;;;26.88;;
7477;SDS011;3780;42.424;25.636;2023-01-16T16:29:18;42.97;;;27.58;;
7477;SDS011;3780;42.424;25.636;2023-01-16T16:31:44;41.65;;;27.38;;
7477;SDS011;3780;42.424;25.636;2023-01-16T16:34:15;43.42;;;26.20;;
7477;SDS011;3780;42.424;25.636;2023-01-16T16:36:45;45.25;;;26.55;;
7477;SDS011;3780;42.424;25.636;2023-01-16T16:39:25;41.75;;;27.92;;
7477;SDS011;3780;42.424;25.636;2023-01-16T16:41:51;61.55;;;29.73;;
7477;SDS011;3780;42.424;25.636;2023-01-16T16:44:36;52.63;;;31.15;;
7477;SDS011;3780;42.424;25.636;2023-01-16T16:47:01;63.47;;;30.38;;
7477;SDS011;3780;42.424;25.636;2023-01-16T16:49:28;42.22;;;29.50;;
7477;SDS011;3780;42.424;25.636;2023-01-16T16:51:53;53.13;;;28.27;;
7477;SDS011;3780;42.424;25.636;2023-01-16T16:54:19;49.28;;;28.63;;
7477;SDS011;3780;42.424;25.636;2023-01-16T16:56:56;57.53;;;26.83;;
7477;SDS011;3780;42.424;25.636;2023-01-16T16:59:24;50.67;;;28.58;;
7477;SDS011;3780;42.424;25.636;2023-01-16T17:01:51;48.97;;;29.75;;
7477;SDS011;3780;42.424;25.636;2023-01-16T17:04:17;49.13;;;28.35;;
7477;SDS011;3780;42.424;25.636;2023-01-16T17:06:43;51.78;;;28.85;;
7477;SDS011;3780;42.424;25.636;2023-01-16T17:09:10;58.53;;;29.67;;
7477;SDS011;3780;42.424;25.636;2023-01-16T17:11:36;38.58;;;25.35;;
7477;SDS011;3780;42.424;25.636;2023-01-16T17:14:02;30.80;;;24.15;;
7477;SDS011;3780;42.424;25.636;2023-01-16T17:16:27;57.40;;;27.70;;
7477;SDS011;3780;42.424;25.636;2023-01-16T17:18:57;51.22;;;25.95;;
7477;SDS011;3780;42.424;25.636;2023-01-16T17:21:22;55.80;;;31.75;;
7477;SDS011;3780;42.424;25.636;2023-01-16T17:23:48;51.70;;;32.13;;